Hiyodori — JD2366 — position and weather

sailwx.info

Track history (hours):
 
Tides and Currents Weather Stations Pressure Air Temp Water Temp Dewpoint Dewpoint Depression Visibility Wind Speed Wind Dir Waves Ship Positions

Hiyodori

Last reported at 2014-Sep-17 17:33 UTC. Time now 2014-Sep-17 17:41 UTC.
Position N 34°25' E 135°06'.

Length 88 m; draft 3.6 m.

Type: Cargo ship. MMSI: 431000132.

Date/timePositionNaut miles runAvg speedWind from/ knotsBaromVisibWave heightAir tempDewpointWater temp
2014-Sep-17 17:33N 34°25' E 135°06'1110.6
2014-Sep-17 16:32N 34°15' E 134°59'1111.5
2014-Sep-17 15:33N 34°04' E 135°00'17710.3
2014-Sep-16 22:23N 34°29' E 138°32'5912.3
2014-Sep-16 17:33N 35°02' E 139°33'1211.8
2014-Sep-16 16:33N 35°09' E 139°44'1111.1
2014-Sep-16 15:33N 35°20' E 139°42'4 3.9
2014-Sep-16 14:32N 35°24' E 139°41'1 1.3
2014-Sep-16 13:33N 35°23' E 139°40'3 3.2
2014-Sep-16 12:33N 35°22' E 139°44'0 0.1
2014-Sep-16 11:33N 35°22' E 139°44'1010.5
2014-Sep-16 10:34N 35°12' E 139°47'63 5.5
2014-Sep-15 23:10N 35°02' E 138°31'48 3.3
2014-Sep-15 08:33N 35°01' E 139°30'1212.1
2014-Sep-15 07:34N 35°08' E 139°42'1010.4
2014-Sep-15 06:33N 35°18' E 139°44'7 6.9
2014-Sep-15 05:32N 35°24' E 139°41'0 0.0
2014-Sep-15 04:32N 35°24' E 139°41'0 0.0
2014-Sep-15 03:32N 35°24' E 139°41'0 0.0
2014-Sep-15 02:32N 35°24' E 139°41'0 0.0
2014-Sep-15 01:32N 35°24' E 139°41'0 0.0
2014-Sep-15 00:33N 35°24' E 139°41'8 8.0
2014-Sep-14 23:33N 35°17' E 139°45'1111.1
2014-Sep-14 22:33N 35°06' E 139°45'8 0.2
2014-Sep-13 08:34N 35°04' E 139°35'1212.0
2014-Sep-13 07:34N 35°12' E 139°46'1010.4
2014-Sep-13 06:34N 35°22' E 139°41'2 2.1
2014-Sep-13 05:33N 35°24' E 139°41'0 0.1
2014-Sep-13 04:33N 35°24' E 139°41'1 1.0
2014-Sep-13 03:33N 35°23' E 139°40'0 0.1
2014-Sep-13 02:33N 35°23' E 139°40'0 0.1
2014-Sep-13 01:33N 35°23' E 139°40'9 8.9
2014-Sep-13 00:33N 35°16' E 139°46'1010.4
2014-Sep-12 23:33N 35°06' E 139°43'242 6.2
2014-Sep-11 08:28N 34°03' E 134°59'1212.8
2014-Sep-11 07:33N 34°15' E 134°58'1312.7
2014-Sep-11 06:33N 34°26' E 135°06'1212.4
2014-Sep-11 05:33N 34°36' E 135°15'5 4.2
2014-Sep-11 04:29N 34°41' E 135°16'0 0.0
2014-Sep-11 03:23N 34°41' E 135°16'0 0.0
2014-Sep-11 02:29N 34°41' E 135°16'0 0.0
2014-Sep-11 01:29N 34°41' E 135°16'0 0.0
2014-Sep-11 00:29N 34°41' E 135°16'2 1.7
2014-Sep-10 23:33N 34°41' E 135°14'1 0.8
2014-Sep-10 22:11N 34°41' E 135°13'0 0.0
2014-Sep-10 21:34N 34°41' E 135°13'0 0.0
2014-Sep-10 20:33N 34°41' E 135°13'0 0.0
2014-Sep-10 19:34N 34°41' E 135°13'0 0.0
2014-Sep-10 18:33N 34°41' E 135°13'0 0.0
2014-Sep-10 17:34N 34°41' E 135°13'0 0.0
2014-Sep-10 16:33N 34°41' E 135°13'0 0.0
2014-Sep-10 15:34N 34°41' E 135°13'0 0.0
2014-Sep-10 14:33N 34°41' E 135°13'0 0.0
2014-Sep-10 13:33N 34°41' E 135°13'0 0.0
2014-Sep-10 12:33N 34°41' E 135°13'0 0.0
2014-Sep-10 11:33N 34°41' E 135°13'0 0.0
2014-Sep-10 10:33N 34°41' E 135°13'0 0.0
2014-Sep-10 09:33N 34°41' E 135°13'3 2.9
2014-Sep-10 08:33N 34°40' E 135°15'1211.5
2014-Sep-10 07:33N 34°29' E 135°09'1512.3
2014-Sep-10 06:20N 34°17' E 134°59'1013.2
2014-Sep-10 05:33N 34°06' E 135°01'18010.6
2014-Sep-09 12:33N 34°33' E 138°36'3611.8
2014-Sep-09 09:30N 34°54' E 139°12'1212.7
2014-Sep-09 08:33N 34°59' E 139°26'1212.2
2014-Sep-09 07:33N 35°06' E 139°38'1111.4
2014-Sep-09 06:33N 35°15' E 139°46'1010.2
2014-Sep-09 05:33N 35°24' E 139°41'0 0.0
2014-Sep-09 04:33N 35°24' E 139°41'1 1.4
2014-Sep-09 03:33N 35°23' E 139°41'1110.9
2014-Sep-09 02:33N 35°13' E 139°47'10 9.9
2014-Sep-09 01:33N 35°04' E 139°42'1110.6
2014-Sep-09 00:33N 34°58' E 139°31'  
Track history (hours):
 
Tides and Currents Weather Stations Pressure Air Temp Water Temp Dewpoint Dewpoint Depression Visibility Wind Speed Wind Dir Waves Ship Positions

Hiyodori

Last reported at 2014-Sep-17 17:33 UTC. Time now 2014-Sep-17 17:41 UTC.
Position N 34°25' E 135°06'.

Length 88 m; draft 3.6 m.

Type: Cargo ship. MMSI: 431000132.

Date/timePositionNaut miles runAvg speedWind from/ knotsBaromVisibWave heightAir tempDewpointWater temp
2014-Sep-17 17:33N 34°25' E 135°06'1110.6
2014-Sep-17 16:32N 34°15' E 134°59'1111.5
2014-Sep-17 15:33N 34°04' E 135°00'17710.3
2014-Sep-16 22:23N 34°29' E 138°32'5912.3
2014-Sep-16 17:33N 35°02' E 139°33'1211.8
2014-Sep-16 16:33N 35°09' E 139°44'1111.1
2014-Sep-16 15:33N 35°20' E 139°42'4 3.9
2014-Sep-16 14:32N 35°24' E 139°41'1 1.3
2014-Sep-16 13:33N 35°23' E 139°40'3 3.2
2014-Sep-16 12:33N 35°22' E 139°44'0 0.1
2014-Sep-16 11:33N 35°22' E 139°44'1010.5
2014-Sep-16 10:34N 35°12' E 139°47'63 5.5
2014-Sep-15 23:10N 35°02' E 138°31'48 3.3
2014-Sep-15 08:33N 35°01' E 139°30'1212.1
2014-Sep-15 07:34N 35°08' E 139°42'1010.4
2014-Sep-15 06:33N 35°18' E 139°44'7 6.9
2014-Sep-15 05:32N 35°24' E 139°41'0 0.0
2014-Sep-15 04:32N 35°24' E 139°41'0 0.0
2014-Sep-15 03:32N 35°24' E 139°41'0 0.0
2014-Sep-15 02:32N 35°24' E 139°41'0 0.0
2014-Sep-15 01:32N 35°24' E 139°41'0 0.0
2014-Sep-15 00:33N 35°24' E 139°41'8 8.0
2014-Sep-14 23:33N 35°17' E 139°45'1111.1
2014-Sep-14 22:33N 35°06' E 139°45'8 0.2
2014-Sep-13 08:34N 35°04' E 139°35'1212.0
2014-Sep-13 07:34N 35°12' E 139°46'1010.4
2014-Sep-13 06:34N 35°22' E 139°41'2 2.1
2014-Sep-13 05:33N 35°24' E 139°41'0 0.1
2014-Sep-13 04:33N 35°24' E 139°41'1 1.0
2014-Sep-13 03:33N 35°23' E 139°40'0 0.1
2014-Sep-13 02:33N 35°23' E 139°40'0 0.1
2014-Sep-13 01:33N 35°23' E 139°40'9 8.9
2014-Sep-13 00:33N 35°16' E 139°46'1010.4
2014-Sep-12 23:33N 35°06' E 139°43'242 6.2
2014-Sep-11 08:28N 34°03' E 134°59'1212.8
2014-Sep-11 07:33N 34°15' E 134°58'1312.7
2014-Sep-11 06:33N 34°26' E 135°06'1212.4
2014-Sep-11 05:33N 34°36' E 135°15'5 4.2
2014-Sep-11 04:29N 34°41' E 135°16'0 0.0
2014-Sep-11 03:23N 34°41' E 135°16'0 0.0
2014-Sep-11 02:29N 34°41' E 135°16'0 0.0
2014-Sep-11 01:29N 34°41' E 135°16'0 0.0
2014-Sep-11 00:29N 34°41' E 135°16'2 1.7
2014-Sep-10 23:33N 34°41' E 135°14'1 0.8
2014-Sep-10 22:11N 34°41' E 135°13'0 0.0
2014-Sep-10 21:34N 34°41' E 135°13'0 0.0
2014-Sep-10 20:33N 34°41' E 135°13'0 0.0
2014-Sep-10 19:34N 34°41' E 135°13'0 0.0
2014-Sep-10 18:33N 34°41' E 135°13'0 0.0
2014-Sep-10 17:34N 34°41' E 135°13'0 0.0
2014-Sep-10 16:33N 34°41' E 135°13'0 0.0
2014-Sep-10 15:34N 34°41' E 135°13'0 0.0
2014-Sep-10 14:33N 34°41' E 135°13'0 0.0
2014-Sep-10 13:33N 34°41' E 135°13'0 0.0
2014-Sep-10 12:33N 34°41' E 135°13'0 0.0
2014-Sep-10 11:33N 34°41' E 135°13'0 0.0
2014-Sep-10 10:33N 34°41' E 135°13'0 0.0
2014-Sep-10 09:33N 34°41' E 135°13'3 2.9
2014-Sep-10 08:33N 34°40' E 135°15'1211.5
2014-Sep-10 07:33N 34°29' E 135°09'1512.3
2014-Sep-10 06:20N 34°17' E 134°59'1013.2
2014-Sep-10 05:33N 34°06' E 135°01'18010.6
2014-Sep-09 12:33N 34°33' E 138°36'3611.8
2014-Sep-09 09:30N 34°54' E 139°12'1212.7
2014-Sep-09 08:33N 34°59' E 139°26'1212.2
2014-Sep-09 07:33N 35°06' E 139°38'1111.4
2014-Sep-09 06:33N 35°15' E 139°46'1010.2
2014-Sep-09 05:33N 35°24' E 139°41'0 0.0
2014-Sep-09 04:33N 35°24' E 139°41'1 1.4
2014-Sep-09 03:33N 35°23' E 139°41'1110.9
2014-Sep-09 02:33N 35°13' E 139°47'10 9.9
2014-Sep-09 01:33N 35°04' E 139°42'1110.6
2014-Sep-09 00:33N 34°58' E 139°31'  

Dump ship's entire track history